Roaming Rock Shores, Ohio
Current Conditions -  °F | °C
As of 10:14 AM on Wednesday 26 Nov 2014 (Local Time) from KHZY Reporting Station
Overcast Overcast  
Wind Chill: 29°   Ceiling: 3000
Heat Index: 34°   Visibility: 10mi
Dew Point: 26°   Wind: 6mph
Humidity: 73%   Direction: 70°ENE
Pressure: 30.11"   Gusts: NA
Location:  41.6051°N, 80.867°W
Report Text: KHZY 261514Z AUTO 07005KT 10SM OVC030 01/M03 A3011 RMK AO2 T00111033
Loading
Personal Weather Stations






























Interactive Weather Map New forecast layout! Learn more

10-Day Weather Forecast

Advertisements
Track Severe Weather on mobile